Time;durP1;ratioP1;P1;durP2;ratioP2;P2;SDS_P1;SDS_P2;PMS_P1;PMS_P2;Temp;Humidity;BMP_temperature;BMP_pressure;BME280_temperature;BME280_humidity;BME280_pressure;Samples;Min_cycle;Max_cycle;Signal;HPM_P1;HPM_P2
2022/08/27 00:02:20;;;;;;;12.63;6.75;;;;;;;;;;4973493;28;20027;-65
2022/08/27 00:04:45;;;;;;;12.50;6.82;;;;;;;;;;4968636;28;20142;-65
2022/08/27 00:07:12;;;;;;;12.63;6.65;;;;;;;;;;4974555;28;20046;-65
2022/08/27 00:09:37;;;;;;;17.75;6.60;;;;;;;;;;4971101;28;20114;-66
2022/08/27 00:12:04;;;;;;;12.38;6.50;;;;;;;;;;4973767;28;20520;-65
2022/08/27 00:14:31;;;;;;;12.52;6.32;;;;;;;;;;4972402;28;20038;-65
2022/08/27 00:16:57;;;;;;;16.13;6.68;;;;;;;;;;4973662;28;20232;-64
2022/08/27 00:19:22;;;;;;;9.20;6.28;;;;;;;;;;4972873;28;20456;-64
2022/08/27 00:21:48;;;;;;;10.77;6.32;;;;;;;;;;4972230;28;20073;-64
2022/08/27 00:24:14;;;;;;;12.93;6.50;;;;;;;;;;4972360;28;20035;-64
2022/08/27 00:26:39;;;;;;;11.52;6.63;;;;;;;;;;4972451;28;20081;-64
2022/08/27 00:29:07;;;;;;;12.38;7.22;;;;;;;;;;4972765;28;20030;-65
2022/08/27 00:31:32;;;;;;;10.00;6.10;;;;;;;;;;4973477;28;20038;-65
2022/08/27 00:33:58;;;;;;;7.85;6.50;;;;;;;;;;4973705;28;20654;-64
2022/08/27 00:36:24;;;;;;;12.60;6.40;;;;;;;;;;4984585;28;20081;-65
2022/08/27 00:38:50;;;;;;;12.93;6.82;;;;;;;;;;4971771;28;20038;-65
2022/08/27 00:41:17;;;;;;;12.68;6.35;;;;;;;;;;4970876;28;20478;-65
2022/08/27 00:43:53;;;;;;;13.90;6.60;;;;;;;;;;4973050;28;20138;-66
2022/08/27 00:46:41;;;;;;;14.75;6.68;;;;;;;;;;4972413;28;20030;-66
2022/08/27 00:49:11;;;;;;;16.55;7.43;;;;;;;;;;4971364;28;20047;-66
2022/08/27 00:51:37;;;;;;;12.45;7.30;;;;;;;;;;4971134;28;20062;-65
2022/08/27 00:54:04;;;;;;;10.98;7.30;;;;;;;;;;4972214;28;20038;-65
2022/08/27 00:56:36;;;;;;;11.05;7.13;;;;;;;;;;4971801;28;20034;-65
2022/08/27 00:59:02;;;;;;;13.35;7.25;;;;;;;;;;4973587;28;20086;-66
2022/08/27 01:01:31;;;;;;;14.27;7.85;;;;;;;;;;4971111;28;20121;-65
2022/08/27 01:03:59;;;;;;;15.75;7.70;;;;;;;;;;4971229;28;20098;-65
2022/08/27 01:06:29;;;;;;;13.05;7.13;;;;;;;;;;4973068;28;20034;-65
2022/08/27 01:09:01;;;;;;;12.87;7.70;;;;;;;;;;4972554;28;20062;-66
2022/08/27 01:11:27;;;;;;;11.98;6.97;;;;;;;;;;4969276;28;20456;-66
2022/08/27 01:13:53;;;;;;;15.85;7.53;;;;;;;;;;4972423;28;20089;-66
2022/08/27 01:16:24;;;;;;;13.60;7.22;;;;;;;;;;4969444;28;20386;-65
2022/08/27 01:18:49;;;;;;;;;;;;;;;;;;4971273;28;20579;-65
2022/08/27 01:21:34;;;;;;;14.60;6.88;;;;;;;;;;4970276;28;20016;-65
2022/08/27 01:24:06;;;;;;;14.18;7.25;;;;;;;;;;4957693;28;20095;-65
2022/08/27 01:26:31;;;;;;;11.27;7.25;;;;;;;;;;4971925;28;20027;-65
2022/08/27 01:28:57;;;;;;;14.27;7.25;;;;;;;;;;4970494;28;20041;-66
2022/08/27 01:31:23;;;;;;;12.00;6.88;;;;;;;;;;4970474;28;20037;-65
2022/08/27 01:33:55;;;;;;;11.77;7.05;;;;;;;;;;4970218;28;20031;-65
2022/08/27 01:36:21;;;;;;;13.90;7.10;;;;;;;;;;4971235;28;20507;-65
2022/08/27 01:38:46;;;;;;;12.82;6.60;;;;;;;;;;4971390;28;20043;-65
2022/08/27 01:41:12;;;;;;;11.10;6.22;;;;;;;;;;4967583;28;20039;-64
2022/08/27 01:43:37;;;;;;;12.40;6.38;;;;;;;;;;4972646;28;20121;-66
2022/08/27 01:46:03;;;;;;;12.43;6.00;;;;;;;;;;4962700;28;20885;-65
2022/08/27 01:48:29;;;;;;;11.13;6.00;;;;;;;;;;4964020;28;20391;-65
2022/08/27 01:50:54;;;;;;;14.90;5.90;;;;;;;;;;4968345;28;20039;-66
2022/08/27 01:53:23;;;;;;;9.52;5.78;;;;;;;;;;4982150;28;20122;-64
2022/08/27 01:55:50;;;;;;;15.13;5.63;;;;;;;;;;4974596;28;20034;-65
2022/08/27 01:58:18;;;;;;;14.77;6.40;;;;;;;;;;4972928;28;20082;-64
2022/08/27 02:00:47;;;;;;;14.75;6.00;;;;;;;;;;4969820;28;20097;-65
2022/08/27 02:03:17;;;;;;;13.20;5.75;;;;;;;;;;4971155;28;20035;-65
2022/08/27 02:05:44;;;;;;;13.75;6.05;;;;;;;;;;4969952;28;20031;-65
2022/08/27 02:08:10;;;;;;;13.73;5.90;;;;;;;;;;4971561;28;20045;-64
2022/08/27 02:10:38;;;;;;;12.60;5.32;;;;;;;;;;4964240;28;20066;-64
2022/08/27 02:13:08;;;;;;;11.60;5.20;;;;;;;;;;4971091;28;20038;-65
2022/08/27 02:15:34;;;;;;;10.55;4.82;;;;;;;;;;4971570;28;20053;-63
2022/08/27 02:18:00;;;;;;;9.90;4.95;;;;;;;;;;4969682;28;20048;-64
2022/08/27 02:20:27;;;;;;;12.80;5.00;;;;;;;;;;4969547;28;20467;-64
2022/08/27 02:22:52;;;;;;;11.90;4.70;;;;;;;;;;4968947;28;20121;-64
2022/08/27 02:25:20;;;;;;;11.27;4.78;;;;;;;;;;4971136;28;20110;-64
2022/08/27 02:27:47;;;;;;;9.55;4.10;;;;;;;;;;4968705;28;20030;-64
2022/08/27 02:30:19;;;;;;;9.30;3.80;;;;;;;;;;4969975;28;20035;-64
2022/08/27 02:32:46;;;;;;;12.15;3.72;;;;;;;;;;4971328;28;20081;-64
2022/08/27 02:35:12;;;;;;;8.65;3.38;;;;;;;;;;4970490;28;20035;-66
2022/08/27 02:37:38;;;;;;;9.52;3.55;;;;;;;;;;4972055;28;20070;-63
2022/08/27 02:40:06;;;;;;;10.30;3.70;;;;;;;;;;4970418;28;20035;-63
2022/08/27 02:42:32;;;;;;;12.00;3.50;;;;;;;;;;4971208;28;20031;-63
2022/08/27 02:44:57;;;;;;;9.20;3.75;;;;;;;;;;4970515;28;20041;-63
2022/08/27 02:47:23;;;;;;;10.07;3.45;;;;;;;;;;4971075;28;20035;-63
2022/08/27 02:49:48;;;;;;;12.05;3.30;;;;;;;;;;4969007;28;20125;-63
2022/08/27 02:52:15;;;;;;;10.10;3.30;;;;;;;;;;4971342;28;20069;-63
2022/08/27 02:54:40;;;;;;;9.10;3.20;;;;;;;;;;4970323;28;20038;-64
2022/08/27 02:57:06;;;;;;;9.85;3.10;;;;;;;;;;4969238;28;20041;-62
2022/08/27 02:59:31;;;;;;;8.90;3.00;;;;;;;;;;4972441;28;20149;-62
2022/08/27 03:01:56;;;;;;;8.48;2.88;;;;;;;;;;4968580;28;20031;-62
2022/08/27 03:04:22;;;;;;;12.35;3.38;;;;;;;;;;4972956;28;20045;-63
2022/08/27 03:06:48;;;;;;;7.28;2.88;;;;;;;;;;4967295;28;20117;-65
2022/08/27 03:09:13;;;;;;;9.27;3.38;;;;;;;;;;4968824;28;20037;-62
2022/08/27 03:11:39;;;;;;;8.95;3.10;;;;;;;;;;4970767;28;20089;-62
2022/08/27 03:14:05;;;;;;;8.55;3.25;;;;;;;;;;4970752;28;20042;-62
2022/08/27 03:16:34;;;;;;;10.95;3.60;;;;;;;;;;4970588;28;20030;-62
2022/08/27 03:18:59;;;;;;;8.57;3.40;;;;;;;;;;4969374;28;20410;-62
2022/08/27 03:21:25;;;;;;;9.38;2.97;;;;;;;;;;4972331;28;20031;-62
2022/08/27 03:23:51;;;;;;;8.88;2.75;;;;;;;;;;4973468;28;20019;-62
2022/08/27 03:26:17;;;;;;;8.25;2.95;;;;;;;;;;4972723;28;20035;-61
2022/08/27 03:28:43;;;;;;;7.15;2.92;;;;;;;;;;4973865;28;20030;-62
2022/08/27 03:31:15;;;;;;;10.30;2.90;;;;;;;;;;4972678;28;20722;-61
2022/08/27 03:33:42;;;;;;;7.15;2.70;;;;;;;;;;4974980;28;20030;-63
2022/08/27 03:36:08;;;;;;;9.00;2.92;;;;;;;;;;4973736;28;20045;-63
2022/08/27 03:38:34;;;;;;;8.85;3.00;;;;;;;;;;4974226;28;20531;-62
2022/08/27 03:41:01;;;;;;;7.75;2.85;;;;;;;;;;4972448;28;20057;-61
2022/08/27 03:43:27;;;;;;;10.23;2.67;;;;;;;;;;4974259;28;20101;-61
2022/08/27 03:45:53;;;;;;;8.85;2.72;;;;;;;;;;4974858;28;20439;-62
2022/08/27 03:48:18;;;;;;;10.15;2.80;;;;;;;;;;4972478;28;20491;-62
2022/08/27 03:50:46;;;;;;;5.68;2.53;;;;;;;;;;4973748;28;20058;-62
2022/08/27 03:53:13;;;;;;;8.75;2.80;;;;;;;;;;4972511;28;20065;-61
2022/08/27 03:55:41;;;;;;;6.55;2.50;;;;;;;;;;4973911;28;20026;-62
2022/08/27 03:58:07;;;;;;;6.20;2.60;;;;;;;;;;4972857;28;20503;-61
2022/08/27 04:00:33;;;;;;;8.43;2.45;;;;;;;;;;4972861;28;20027;-62
2022/08/27 04:02:58;;;;;;;7.63;2.50;;;;;;;;;;4971509;28;20061;-63
2022/08/27 04:05:24;;;;;;;7.22;2.80;;;;;;;;;;4972603;28;20498;-61
2022/08/27 04:07:49;;;;;;;10.25;2.83;;;;;;;;;;4970052;28;20124;-65
2022/08/27 04:10:15;;;;;;;9.45;2.70;;;;;;;;;;4973078;28;20035;-62
2022/08/27 04:12:41;;;;;;;8.70;2.92;;;;;;;;;;4969181;28;20096;-63
2022/08/27 04:15:09;;;;;;;7.53;2.53;;;;;;;;;;4973536;28;20503;-62
2022/08/27 04:17:35;;;;;;;5.25;2.30;;;;;;;;;;4969625;28;20035;-61
2022/08/27 04:20:01;;;;;;;5.45;2.40;;;;;;;;;;4973579;28;20054;-61
2022/08/27 04:22:26;;;;;;;5.43;2.45;;;;;;;;;;4971876;28;20034;-63
2022/08/27 04:24:53;;;;;;;7.75;2.70;;;;;;;;;;4970311;28;20034;-64
2022/08/27 04:27:19;;;;;;;10.05;2.60;;;;;;;;;;4972100;28;20411;-61
2022/08/27 04:29:45;;;;;;;7.60;2.30;;;;;;;;;;4972940;28;20117;-62
2022/08/27 04:32:11;;;;;;;8.55;2.42;;;;;;;;;;4972939;28;20102;-62
2022/08/27 04:34:36;;;;;;;13.95;2.70;;;;;;;;;;4972980;28;20494;-61
2022/08/27 04:37:02;;;;;;;8.25;2.60;;;;;;;;;;4972672;28;20034;-61
2022/08/27 04:39:29;;;;;;;8.10;2.60;;;;;;;;;;4972306;28;20039;-62
2022/08/27 04:41:57;;;;;;;7.53;2.25;;;;;;;;;;4971479;28;20031;-62
2022/08/27 04:44:24;;;;;;;7.43;2.45;;;;;;;;;;4972920;28;20031;-61
2022/08/27 04:46:54;;;;;;;6.22;2.20;;;;;;;;;;4973972;28;20038;-62
2022/08/27 04:49:20;;;;;;;5.40;2.50;;;;;;;;;;4972966;28;20035;-62
2022/08/27 04:51:45;;;;;;;7.18;2.70;;;;;;;;;;4974648;28;20303;-62
2022/08/27 04:54:11;;;;;;;7.28;2.40;;;;;;;;;;4970816;28;20064;-62
2022/08/27 04:56:37;;;;;;;7.38;2.38;;;;;;;;;;4974355;28;20035;-62
2022/08/27 04:59:06;;;;;;;7.88;2.70;;;;;;;;;;4972683;28;20487;-61
2022/08/27 05:01:35;;;;;;;5.68;2.35;;;;;;;;;;4974407;28;20038;-61
2022/08/27 05:04:01;;;;;;;6.78;2.55;;;;;;;;;;4970565;28;20474;-62
2022/08/27 05:06:27;;;;;;;6.32;2.47;;;;;;;;;;4967387;28;20500;-62
2022/08/27 05:08:54;;;;;;;3.83;2.30;;;;;;;;;;4961569;28;20034;-65
2022/08/27 05:11:20;;;;;;;7.07;2.63;;;;;;;;;;4972970;28;20039;-62
2022/08/27 05:13:46;;;;;;;6.38;2.38;;;;;;;;;;4974065;28;20034;-61
2022/08/27 05:16:17;;;;;;;7.00;2.60;;;;;;;;;;4972498;28;20874;-62
2022/08/27 05:18:43;;;;;;;5.18;2.22;;;;;;;;;;4974242;28;20038;-61
2022/08/27 05:21:14;;;;;;;7.90;2.35;;;;;;;;;;4972174;28;20407;-61
2022/08/27 05:23:40;;;;;;;5.22;2.17;;;;;;;;;;4973379;28;20038;-61
2022/08/27 05:26:06;;;;;;;6.65;2.13;;;;;;;;;;4971553;28;20035;-61
2022/08/27 05:28:32;;;;;;;7.70;2.20;;;;;;;;;;4973858;28;20053;-61
2022/08/27 05:31:04;;;;;;;8.95;2.40;;;;;;;;;;4971153;28;20535;-62
2022/08/27 05:33:30;;;;;;;7.30;2.65;;;;;;;;;;4973919;28;20035;-61
2022/08/27 05:35:57;;;;;;;7.85;2.30;;;;;;;;;;4972115;28;20353;-64
2022/08/27 05:38:25;;;;;;;6.20;2.50;;;;;;;;;;4973702;28;20035;-60
2022/08/27 05:41:05;;;;;;;7.38;2.40;;;;;;;;;;4972576;28;20034;-62
2022/08/27 05:43:31;;;;;;;7.57;2.38;;;;;;;;;;4972882;28;20031;-62
2022/08/27 05:45:56;;;;;;;5.65;2.20;;;;;;;;;;4971828;28;20066;-66
2022/08/27 05:48:21;;;;;;;7.22;2.30;;;;;;;;;;4972849;28;20027;-61
2022/08/27 05:50:47;;;;;;;6.35;2.15;;;;;;;;;;4973487;28;20031;-62
2022/08/27 05:53:13;;;;;;;9.20;2.58;;;;;;;;;;4956385;28;20043;-61
2022/08/27 05:55:40;;;;;;;5.65;2.42;;;;;;;;;;4961285;28;20058;-63
2022/08/27 05:58:07;;;;;;;9.25;2.60;;;;;;;;;;4972361;28;20050;-62
2022/08/27 06:03:20;;;;;;;7.40;2.22;;;;;;;;;;4972569;28;20097;-62
2022/08/27 06:05:45;;;;;;;5.32;2.03;;;;;;;;;;4970658;28;20407;-63
2022/08/27 06:08:11;;;;;;;6.82;2.35;;;;;;;;;;4972065;28;20125;-62
2022/08/27 06:10:40;;;;;;;6.15;2.08;;;;;;;;;;4972265;28;20114;-62
2022/08/27 06:13:06;;;;;;;6.20;2.40;;;;;;;;;;4972443;28;20043;-62
2022/08/27 06:15:31;;;;;;;8.77;2.38;;;;;;;;;;4971016;28;20402;-62
2022/08/27 06:17:57;;;;;;;6.50;2.03;;;;;;;;;;4971961;28;20129;-65
2022/08/27 06:20:22;;;;;;;5.57;2.20;;;;;;;;;;4972027;28;20038;-62
2022/08/27 06:22:48;;;;;;;5.10;2.15;;;;;;;;;;4971700;28;20442;-62
2022/08/27 06:25:13;;;;;;;5.03;2.30;;;;;;;;;;4971081;28;20155;-61
2022/08/27 06:27:39;;;;;;;9.65;2.42;;;;;;;;;;4972341;28;20132;-61
2022/08/27 06:30:04;;;;;;;6.07;2.28;;;;;;;;;;4970018;28;20483;-61
2022/08/27 06:32:30;;;;;;;3.92;2.00;;;;;;;;;;4971060;28;20364;-61
2022/08/27 06:34:55;;;;;;;8.18;2.20;;;;;;;;;;4970538;28;20039;-61
2022/08/27 06:37:21;;;;;;;5.72;1.90;;;;;;;;;;4971208;28;20062;-62
2022/08/27 06:39:46;;;;;;;5.60;1.92;;;;;;;;;;4961563;28;20555;-61
2022/08/27 06:42:12;;;;;;;6.82;2.13;;;;;;;;;;4971387;28;20039;-61
2022/08/27 06:44:38;;;;;;;5.10;2.20;;;;;;;;;;4970882;28;20034;-62
2022/08/27 06:47:04;;;;;;;5.30;2.00;;;;;;;;;;4971283;28;20054;-62
2022/08/27 06:49:29;;;;;;;5.95;2.30;;;;;;;;;;4971425;28;20034;-61
2022/08/27 06:51:54;;;;;;;6.22;2.30;;;;;;;;;;4971641;28;20045;-62
2022/08/27 06:54:20;;;;;;;6.35;1.90;;;;;;;;;;4972226;28;20042;-63
2022/08/27 06:56:48;;;;;;;5.00;2.20;;;;;;;;;;4975925;28;20085;-62
2022/08/27 06:59:16;;;;;;;5.50;2.10;;;;;;;;;;4975381;28;20133;-62
2022/08/27 07:01:45;;;;;;;5.82;1.90;;;;;;;;;;4975358;28;20034;-62
2022/08/27 07:04:15;;;;;;;7.72;2.25;;;;;;;;;;4975517;28;20035;-62
2022/08/27 07:06:41;;;;;;;5.00;1.90;;;;;;;;;;4974326;28;20042;-62
2022/08/27 07:09:07;;;;;;;6.50;2.13;;;;;;;;;;4973768;28;20086;-62
2022/08/27 07:11:33;;;;;;;6.68;2.22;;;;;;;;;;4976575;28;20110;-61
2022/08/27 07:13:59;;;;;;;6.38;2.00;;;;;;;;;;4973043;28;20205;-62
2022/08/27 07:16:26;;;;;;;8.05;2.30;;;;;;;;;;4973991;28;20039;-61
2022/08/27 07:18:56;;;;;;;7.43;2.33;;;;;;;;;;4974546;28;20049;-61
2022/08/27 07:21:23;;;;;;;6.45;2.40;;;;;;;;;;4972885;28;20043;-60
2022/08/27 07:23:50;;;;;;;7.95;2.30;;;;;;;;;;4974307;28;20039;-61
2022/08/27 07:26:18;;;;;;;8.15;2.47;;;;;;;;;;4974378;28;20058;-61
2022/08/27 07:28:45;;;;;;;4.70;2.00;;;;;;;;;;4973234;28;20380;-60
2022/08/27 07:31:12;;;;;;;5.13;2.22;;;;;;;;;;4974769;28;20467;-60
2022/08/27 07:33:39;;;;;;;5.65;1.88;;;;;;;;;;4974019;28;20515;-62
2022/08/27 07:36:06;;;;;;;5.75;2.05;;;;;;;;;;4975112;28;20059;-66
2022/08/27 07:38:32;;;;;;;7.97;2.17;;;;;;;;;;4973151;28;20057;-61
2022/08/27 07:40:57;;;;;;;7.13;2.40;;;;;;;;;;4974638;28;20236;-61
2022/08/27 07:46:07;;;;;;;8.27;2.15;;;;;;;;;;4974709;28;20034;-61
2022/08/27 07:48:33;;;;;;;5.70;2.10;;;;;;;;;;4974729;28;20038;-60
2022/08/27 07:51:04;;;;;;;4.30;2.00;;;;;;;;;;4972498;28;20502;-60
2022/08/27 07:53:31;;;;;;;9.27;2.65;;;;;;;;;;4971117;28;20077;-61
2022/08/27 07:56:07;;;;;;;4.30;1.90;;;;;;;;;;4965319;28;20043;-60
2022/08/27 07:58:33;;;;;;;5.22;2.17;;;;;;;;;;4966538;28;20061;-61
2022/08/27 08:00:58;;;;;;;5.22;1.90;;;;;;;;;;4975141;28;20093;-61
2022/08/27 08:03:24;;;;;;;5.10;2.10;;;;;;;;;;4971776;28;20042;-60
2022/08/27 08:05:52;;;;;;;8.40;2.00;;;;;;;;;;4974479;28;20439;-60
2022/08/27 08:08:18;;;;;;;7.13;2.10;;;;;;;;;;4972836;28;21473;-61
2022/08/27 08:10:44;;;;;;;9.48;2.17;;;;;;;;;;4973951;28;20038;-60
2022/08/27 08:13:09;;;;;;;7.43;2.60;;;;;;;;;;4973559;28;20031;-64
2022/08/27 08:15:35;;;;;;;7.95;2.60;;;;;;;;;;4972604;28;20502;-62
2022/08/27 08:18:00;;;;;;;6.47;2.42;;;;;;;;;;4973686;28;20031;-62
2022/08/27 08:20:26;;;;;;;7.28;2.00;;;;;;;;;;4973080;28;20034;-62
2022/08/27 08:22:51;;;;;;;6.03;2.33;;;;;;;;;;4974737;28;20154;-61
2022/08/27 08:25:17;;;;;;;5.60;2.00;;;;;;;;;;4972661;28;20053;-61
2022/08/27 08:27:43;;;;;;;6.22;1.98;;;;;;;;;;4974108;28;20034;-61
2022/08/27 08:30:10;;;;;;;5.65;1.95;;;;;;;;;;4970929;28;20030;-64
2022/08/27 08:32:36;;;;;;;10.23;2.10;;;;;;;;;;4971096;28;20546;-61
2022/08/27 08:35:02;;;;;;;4.68;2.00;;;;;;;;;;4973571;28;20070;-61
2022/08/27 08:37:28;;;;;;;3.97;1.80;;;;;;;;;;4972719;28;20423;-61
2022/08/27 08:39:53;;;;;;;5.65;1.80;;;;;;;;;;4958991;28;20476;-61
2022/08/27 08:42:42;;;;;;;4.88;1.92;;;;;;;;;;4963632;28;20042;-61
2022/08/27 08:45:12;;;;;;;4.53;1.90;;;;;;;;;;4972738;28;20197;-64
2022/08/27 08:47:48;;;;;;;8.18;1.80;;;;;;;;;;4972741;28;20039;-61
2022/08/27 08:50:27;;;;;;;6.93;1.90;;;;;;;;;;4972102;28;20041;-62
2022/08/27 08:53:04;;;;;;;7.97;1.80;;;;;;;;;;4973388;28;20045;-61
2022/08/27 08:55:50;;;;;;;4.97;1.70;;;;;;;;;;4954719;28;20039;-64
2022/08/27 08:58:28;;;;;;;5.45;1.75;;;;;;;;;;4975087;28;20055;-66
2022/08/27 09:00:57;;;;;;;4.47;1.80;;;;;;;;;;4955265;28;20035;-70
2022/08/27 09:03:24;;;;;;;5.97;1.60;;;;;;;;;;4957120;28;20031;-69
2022/08/27 09:06:02;;;;;;;5.30;1.50;;;;;;;;;;4973001;28;20027;-65
2022/08/27 09:08:39;;;;;;;7.55;2.30;;;;;;;;;;4960768;28;20039;-67
2022/08/27 09:11:45;;;;;;;6.88;1.95;;;;;;;;;;4973643;28;20035;-69
2022/08/27 09:14:14;;;;;;;5.97;1.70;;;;;;;;;;4971361;28;20047;-70
2022/08/27 09:16:39;;;;;;;5.18;1.70;;;;;;;;;;4953761;28;20031;-68
2022/08/27 09:19:06;;;;;;;5.57;1.70;;;;;;;;;;4961786;28;20392;-66
2022/08/27 09:21:48;;;;;;;5.20;1.75;;;;;;;;;;4962234;28;20121;-66
2022/08/27 09:24:28;;;;;;;5.25;1.90;;;;;;;;;;4971815;28;20038;-65
2022/08/27 09:26:53;;;;;;;3.75;1.50;;;;;;;;;;4969623;28;20031;-65
2022/08/27 09:29:19;;;;;;;4.45;1.50;;;;;;;;;;4971844;28;20046;-65
2022/08/27 09:32:02;;;;;;;6.03;1.83;;;;;;;;;;4972066;28;20084;-64
2022/08/27 09:34:37;;;;;;;5.47;1.77;;;;;;;;;;4953901;28;20592;-61
2022/08/27 09:37:14;;;;;;;6.30;1.90;;;;;;;;;;4972208;28;20044;-62
2022/08/27 09:39:39;;;;;;;3.50;1.63;;;;;;;;;;4960271;28;20065;-65
2022/08/27 09:42:06;;;;;;;8.13;1.98;;;;;;;;;;4973004;28;20472;-68
2022/08/27 09:44:31;;;;;;;4.60;1.60;;;;;;;;;;4971518;28;20039;-67
2022/08/27 09:47:02;;;;;;;3.78;1.80;;;;;;;;;;4973692;28;20042;-66
2022/08/27 09:49:29;;;;;;;4.90;1.58;;;;;;;;;;4971898;28;20046;-63
2022/08/27 09:51:55;;;;;;;4.88;1.40;;;;;;;;;;4977648;28;20466;-62
2022/08/27 09:54:54;;;;;;;3.45;1.48;;;;;;;;;;4983337;28;20114;-68
2022/08/27 09:57:33;;;;;;;5.70;1.63;;;;;;;;;;4951861;28;21183;-67
2022/08/27 09:59:59;;;;;;;8.38;1.77;;;;;;;;;;4958878;28;20057;-67
2022/08/27 10:02:25;;;;;;;4.78;1.30;;;;;;;;;;4971378;28;20023;-68
2022/08/27 10:04:57;;;;;;;6.82;1.80;;;;;;;;;;4972754;28;20039;-66
2022/08/27 10:07:32;;;;;;;3.42;1.38;;;;;;;;;;4969778;28;20030;-62
2022/08/27 10:10:16;;;;;;;6.47;1.40;;;;;;;;;;4971742;28;20048;-68
2022/08/27 10:12:51;;;;;;;4.97;1.48;;;;;;;;;;4973382;28;20109;-67
2022/08/27 10:15:17;;;;;;;5.25;1.60;;;;;;;;;;4971023;28;20391;-66
2022/08/27 10:18:01;;;;;;;5.95;1.52;;;;;;;;;;4973201;28;20126;-61
2022/08/27 10:20:42;;;;;;;3.65;1.38;;;;;;;;;;4969910;28;20037;-62
2022/08/27 10:23:16;;;;;;;4.35;1.60;;;;;;;;;;4971558;28;20075;-61
2022/08/27 10:26:00;;;;;;;2.85;1.50;;;;;;;;;;4970089;28;20044;-61
2022/08/27 10:28:38;;;;;;;3.72;1.60;;;;;;;;;;4968113;28;20118;-71
2022/08/27 10:31:31;;;;;;;3.85;1.40;;;;;;;;;;4970074;28;20110;-65
2022/08/27 10:34:24;;;;;;;3.95;1.60;;;;;;;;;;4969648;28;20118;-63
2022/08/27 10:37:01;;;;;;;3.10;1.40;;;;;;;;;;4970682;28;20375;-66
2022/08/27 10:39:43;;;;;;;5.95;1.70;;;;;;;;;;4967658;28;20037;-63
2022/08/27 10:42:29;;;;;;;5.25;1.60;;;;;;;;;;4977707;28;20463;-61
2022/08/27 10:45:31;;;;;;;2.45;1.40;;;;;;;;;;4973145;28;20080;-62
2022/08/27 10:48:23;;;;;;;4.05;1.50;;;;;;;;;;4971477;28;20026;-61
2022/08/27 10:51:17;;;;;;;2.15;1.35;;;;;;;;;;4952494;29;20539;-65
2022/08/27 10:54:05;;;;;;;4.80;1.60;;;;;;;;;;4968822;28;20110;-61
2022/08/27 10:56:49;;;;;;;4.03;1.35;;;;;;;;;;4968642;28;20038;-64
2022/08/27 10:59:36;;;;;;;4.35;1.70;;;;;;;;;;4961216;28;20114;-68
2022/08/27 11:02:39;;;;;;;3.70;1.60;;;;;;;;;;4970101;28;20039;-64
2022/08/27 11:05:15;;;;;;;4.55;1.75;;;;;;;;;;4968119;28;20105;-65
2022/08/27 11:07:45;;;;;;;5.80;1.73;;;;;;;;;;4970786;28;20042;-63
2022/08/27 11:10:24;;;;;;;3.63;1.70;;;;;;;;;;4971230;28;20034;-64
2022/08/27 11:12:54;;;;;;;3.38;1.40;;;;;;;;;;4965588;28;20474;-65
2022/08/27 11:15:23;;;;;;;;;;;;;;;;;;4971241;28;20042;-65
2022/08/27 11:17:51;;;;;;;4.93;1.50;;;;;;;;;;4970333;28;20306;-64
2022/08/27 11:20:23;;;;;;;3.95;1.60;;;;;;;;;;4969754;28;21967;-66
2022/08/27 11:22:54;;;;;;;4.22;1.40;;;;;;;;;;4968828;28;20038;-64
2022/08/27 11:25:20;;;;;;;2.35;1.50;;;;;;;;;;4967975;28;20058;-64
2022/08/27 11:27:48;;;;;;;4.85;1.65;;;;;;;;;;4969493;28;20065;-65
2022/08/27 11:30:35;;;;;;;5.25;1.70;;;;;;;;;;4971450;28;20039;-65
2022/08/27 11:33:13;;;;;;;4.10;1.40;;;;;;;;;;4961924;28;20038;-63
2022/08/27 11:35:47;;;;;;;2.90;1.40;;;;;;;;;;4952857;28;20082;-62
2022/08/27 11:38:49;;;;;;;3.67;1.50;;;;;;;;;;4971336;28;20042;-62
2022/08/27 11:41:41;;;;;;;5.50;1.60;;;;;;;;;;4971247;28;20035;-65
2022/08/27 11:44:07;;;;;;;4.00;1.42;;;;;;;;;;4962236;28;20038;-65
2022/08/27 11:46:45;;;;;;;4.80;1.50;;;;;;;;;;4970127;28;20047;-65
2022/08/27 11:49:22;;;;;;;3.47;1.30;;;;;;;;;;4974708;28;20445;-65
2022/08/27 11:51:57;;;;;;;2.78;1.50;;;;;;;;;;4971933;28;20039;-63
2022/08/27 11:54:28;;;;;;;3.88;1.58;;;;;;;;;;4972714;28;20042;-61
2022/08/27 11:56:54;;;;;;;3.50;1.42;;;;;;;;;;4968682;28;20034;-60
2022/08/27 11:59:22;;;;;;;4.05;1.73;;;;;;;;;;4974204;28;20133;-64
2022/08/27 12:01:51;;;;;;;5.72;1.52;;;;;;;;;;4974075;28;20479;-60
2022/08/27 12:04:39;;;;;;;4.40;1.48;;;;;;;;;;4975232;28;20369;-63
2022/08/27 12:07:15;;;;;;;4.75;1.60;;;;;;;;;;4973811;28;20034;-60
2022/08/27 12:09:59;;;;;;;2.50;1.40;;;;;;;;;;4972877;28;20031;-62
2022/08/27 12:12:44;;;;;;;3.88;1.38;;;;;;;;;;4973890;28;20046;-63
2022/08/27 12:15:28;;;;;;;3.40;1.50;;;;;;;;;;4971667;28;20505;-63
2022/08/27 12:18:21;;;;;;;4.75;1.50;;;;;;;;;;4971631;28;20476;-63
2022/08/27 12:21:02;;;;;;;2.47;1.50;;;;;;;;;;4972391;28;20056;-61
2022/08/27 12:23:42;;;;;;;6.93;1.70;;;;;;;;;;4974255;28;20031;-61
2022/08/27 12:26:30;;;;;;;3.33;1.30;;;;;;;;;;4972888;28;20067;-60
2022/08/27 12:29:18;;;;;;;3.55;1.60;;;;;;;;;;4966056;28;20051;-60
2022/08/27 12:31:47;;;;;;;3.88;1.55;;;;;;;;;;4971135;28;20129;-62
2022/08/27 12:34:18;;;;;;;3.17;1.60;;;;;;;;;;4973581;28;20435;-60
2022/08/27 12:36:47;;;;;;;2.03;1.25;;;;;;;;;;4974490;28;20043;-60
2022/08/27 12:39:16;;;;;;;3.25;1.40;;;;;;;;;;4970698;28;20045;-62
2022/08/27 12:41:47;;;;;;;4.82;1.80;;;;;;;;;;4963338;28;20031;-61
2022/08/27 12:44:22;;;;;;;2.97;1.42;;;;;;;;;;4971322;28;20039;-61
2022/08/27 12:46:56;;;;;;;3.78;1.75;;;;;;;;;;4973754;28;20033;-61
2022/08/27 12:49:26;;;;;;;7.10;1.50;;;;;;;;;;4973975;28;20419;-64
2022/08/27 12:51:53;;;;;;;3.93;1.50;;;;;;;;;;4972933;28;20035;-60
2022/08/27 12:54:56;;;;;;;3.83;1.67;;;;;;;;;;4973629;28;20256;-67
2022/08/27 12:57:54;;;;;;;4.45;1.50;;;;;;;;;;4971818;28;20027;-66
2022/08/27 13:00:20;;;;;;;6.20;1.92;;;;;;;;;;4970679;28;20042;-64
2022/08/27 13:03:08;;;;;;;3.03;1.40;;;;;;;;;;4973904;28;20038;-62
2022/08/27 13:05:39;;;;;;;3.78;1.65;;;;;;;;;;4970907;28;20511;-62
2022/08/27 13:08:18;;;;;;;4.25;1.48;;;;;;;;;;4969181;28;20058;-61
2022/08/27 13:10:44;;;;;;;3.78;1.40;;;;;;;;;;4972396;28;20042;-61
2022/08/27 13:13:14;;;;;;;2.75;1.35;;;;;;;;;;4971832;28;20097;-63
2022/08/27 13:15:49;;;;;;;5.47;1.50;;;;;;;;;;4966732;28;20042;-62
2022/08/27 13:18:16;;;;;;;4.20;1.40;;;;;;;;;;4971912;28;20393;-61
2022/08/27 13:20:42;;;;;;;3.83;1.40;;;;;;;;;;4973027;28;20026;-62
2022/08/27 13:23:21;;;;;;;2.95;1.50;;;;;;;;;;4973165;28;20364;-62
2022/08/27 13:25:55;;;;;;;3.00;1.45;;;;;;;;;;4973430;28;20035;-61
2022/08/27 13:28:24;;;;;;;2.38;1.40;;;;;;;;;;4973473;28;20050;-62
2022/08/27 13:30:50;;;;;;;4.07;1.50;;;;;;;;;;4972389;28;20058;-61
2022/08/27 13:33:23;;;;;;;2.90;1.38;;;;;;;;;;4973803;28;20042;-61
2022/08/27 13:35:49;;;;;;;4.47;1.60;;;;;;;;;;4973492;28;20035;-61
2022/08/27 13:38:16;;;;;;;3.20;1.75;;;;;;;;;;4972754;28;20177;-61
2022/08/27 13:40:56;;;;;;;6.97;1.60;;;;;;;;;;4968971;28;20106;-60
2022/08/27 13:43:41;;;;;;;4.50;1.73;;;;;;;;;;4971113;28;20106;-61
2022/08/27 13:46:11;;;;;;;12.00;2.03;;;;;;;;;;4967644;28;20180;-64
2022/08/27 13:48:40;;;;;;;4.85;1.80;;;;;;;;;;4971985;28;20468;-63
2022/08/27 13:51:07;;;;;;;6.15;1.83;;;;;;;;;;4973237;28;20495;-64
2022/08/27 13:56:30;;;;;;;3.17;1.50;;;;;;;;;;4972340;28;20392;-63
2022/08/27 13:59:07;;;;;;;2.97;1.70;;;;;;;;;;4972034;28;20098;-62
2022/08/27 14:01:32;;;;;;;3.80;1.80;;;;;;;;;;4971048;28;20038;-62
2022/08/27 14:04:04;;;;;;;4.82;1.60;;;;;;;;;;4969437;28;20108;-62
2022/08/27 14:06:40;;;;;;;5.47;1.75;;;;;;;;;;4969160;28;20042;-62
2022/08/27 14:09:10;;;;;;;5.50;1.52;;;;;;;;;;4972621;28;20046;-62
2022/08/27 14:11:37;;;;;;;5.22;1.50;;;;;;;;;;4968224;28;20042;-62
2022/08/27 14:14:02;;;;;;;5.03;1.90;;;;;;;;;;4963056;28;20957;-62
2022/08/27 14:16:31;;;;;;;3.40;1.50;;;;;;;;;;4968941;28;20039;-61
2022/08/27 14:19:12;;;;;;;4.43;1.60;;;;;;;;;;4965479;28;20113;-61
2022/08/27 14:21:42;;;;;;;4.60;1.70;;;;;;;;;;4972528;28;20027;-61
2022/08/27 14:24:07;;;;;;;4.18;1.70;;;;;;;;;;4971071;28;20399;-61
2022/08/27 14:26:33;;;;;;;4.20;1.65;;;;;;;;;;4972396;28;20035;-61
2022/08/27 14:28:59;;;;;;;4.65;1.60;;;;;;;;;;4970701;28;20070;-61
2022/08/27 14:31:24;;;;;;;4.28;2.17;;;;;;;;;;4953581;28;20472;-66
2022/08/27 14:33:53;;;;;;;5.13;1.67;;;;;;;;;;4971819;28;20037;-62
2022/08/27 14:36:20;;;;;;;5.47;1.63;;;;;;;;;;4972470;28;20363;-61
2022/08/27 14:38:48;;;;;;;6.13;1.67;;;;;;;;;;4970829;28;20045;-61
2022/08/27 14:41:14;;;;;;;5.20;1.80;;;;;;;;;;4972825;28;20448;-61
2022/08/27 14:43:39;;;;;;;2.40;1.50;;;;;;;;;;4967932;28;20117;-65
2022/08/27 14:46:09;;;;;;;4.88;1.83;;;;;;;;;;4968064;28;20041;-62
2022/08/27 14:48:35;;;;;;;3.65;1.63;;;;;;;;;;4972223;28;20034;-62
2022/08/27 14:51:11;;;;;;;4.90;1.63;;;;;;;;;;4967282;28;20038;-65
2022/08/27 14:53:36;;;;;;;9.27;1.70;;;;;;;;;;4970186;28;20120;-62
2022/08/27 14:56:02;;;;;;;4.90;1.73;;;;;;;;;;4969838;28;20475;-62
2022/08/27 14:58:28;;;;;;;6.10;1.90;;;;;;;;;;4971841;28;20055;-66
2022/08/27 15:00:55;;;;;;;6.80;1.65;;;;;;;;;;4971451;28;20066;-61
2022/08/27 15:03:24;;;;;;;4.78;1.80;;;;;;;;;;4972009;28;20031;-61
2022/08/27 15:05:51;;;;;;;3.67;1.80;;;;;;;;;;4970800;28;20088;-62
2022/08/27 15:08:16;;;;;;;2.22;1.55;;;;;;;;;;4967045;28;20388;-60